createdAt,value
2022-11-26T00:01:21.897Z,81.26
2022-11-26T00:03:50.000Z,80.72
2022-11-26T00:06:28.296Z,80.89
2022-11-26T00:08:55.267Z,80.92
2022-11-26T00:11:22.274Z,80.86
2022-11-26T00:13:49.661Z,80.84
2022-11-26T00:16:16.832Z,81.31
2022-11-26T00:18:44.146Z,81.11
2022-11-26T00:21:38.358Z,81.29
2022-11-26T00:24:05.818Z,81.17
2022-11-26T00:26:33.375Z,81.05
2022-11-26T00:29:01.387Z,81.14
2022-11-26T00:31:29.422Z,81.13
2022-11-26T00:33:56.883Z,80.79
2022-11-26T00:36:30.584Z,80.97
2022-11-26T00:39:01.787Z,80.92
2022-11-26T00:41:34.612Z,80.67
2022-11-26T00:44:02.033Z,81.00
2022-11-26T00:46:28.974Z,81.07
2022-11-26T00:48:55.934Z,81.18
2022-11-26T00:51:27.924Z,81.03
2022-11-26T00:53:57.604Z,81.15
2022-11-26T00:56:24.739Z,81.19
2022-11-26T00:58:52.076Z,81.37
2022-11-26T01:01:21.946Z,81.47
2022-11-26T01:03:49.140Z,81.43
2022-11-26T01:06:19.173Z,81.40
2022-11-26T01:08:46.953Z,81.39
2022-11-26T01:11:17.569Z,81.64
2022-11-26T01:13:45.705Z,80.97
2022-11-26T01:16:18.477Z,81.44
2022-11-26T01:18:46.035Z,81.60
2022-11-26T01:21:13.254Z,81.65
2022-11-26T01:23:40.175Z,81.60
2022-11-26T01:26:07.709Z,81.58
2022-11-26T01:28:34.642Z,81.37
2022-11-26T01:31:01.626Z,81.43
2022-11-26T01:33:28.611Z,81.49
2022-11-26T01:35:55.533Z,81.44
2022-11-26T01:38:22.498Z,81.36
2022-11-26T01:41:03.831Z,81.89
2022-11-26T01:43:42.137Z,81.96
2022-11-26T01:46:17.763Z,81.66
2022-11-26T01:48:45.326Z,81.47
2022-11-26T01:51:13.570Z,81.66
2022-11-26T01:53:47.963Z,81.88
2022-11-26T01:56:34.539Z,81.67
2022-11-26T01:59:17.885Z,81.66
2022-11-26T02:01:45.209Z,81.37
2022-11-26T02:04:26.098Z,82.08
2022-11-26T02:06:53.060Z,82.07
2022-11-26T02:09:20.500Z,81.90
2022-11-26T02:11:47.992Z,82.03
2022-11-26T02:14:21.800Z,82.17
2022-11-26T02:17:05.219Z,81.78
2022-11-26T02:19:38.153Z,81.96
2022-11-26T02:22:28.211Z,82.17
2022-11-26T02:25:20.076Z,82.18
2022-11-26T02:28:09.496Z,81.92
2022-11-26T02:30:39.612Z,81.72
2022-11-26T02:33:40.706Z,81.69
2022-11-26T02:36:21.753Z,81.62
2022-11-26T02:38:48.751Z,82.09
2022-11-26T02:41:15.729Z,81.96
2022-11-26T02:43:43.222Z,81.89
2022-11-26T02:46:13.493Z,81.92
2022-11-26T02:48:43.700Z,81.99
2022-11-26T02:51:18.938Z,82.05
2022-11-26T02:53:46.822Z,81.78
2022-11-26T02:56:21.171Z,81.66
2022-11-26T02:58:49.780Z,81.74
2022-11-26T03:01:21.723Z,81.49
2022-11-26T03:03:51.345Z,81.62
2022-11-26T03:06:19.454Z,81.82
2022-11-26T03:08:46.513Z,81.84
2022-11-26T03:11:13.830Z,81.61
2022-11-26T03:13:40.808Z,81.99
2022-11-26T03:16:08.086Z,81.88
2022-11-26T03:18:35.063Z,81.48
2022-11-26T03:21:02.077Z,81.66
2022-11-26T03:23:29.085Z,81.85
2022-11-26T03:25:56.027Z,82.13
2022-11-26T03:28:22.963Z,82.14
2022-11-26T03:30:51.134Z,82.09
2022-11-26T03:33:18.689Z,82.19
2022-11-26T03:35:47.359Z,81.82
2022-11-26T03:38:14.495Z,81.59
2022-11-26T03:40:41.685Z,81.51
2022-11-26T03:43:08.671Z,81.58
2022-11-26T03:45:35.608Z,81.27
2022-11-26T03:48:02.586Z,81.45
2022-11-26T03:50:29.656Z,81.19
2022-11-26T03:52:56.573Z,81.70
2022-11-26T03:55:23.564Z,81.96
2022-11-26T03:57:50.518Z,82.03
2022-11-26T04:00:18.004Z,81.75
2022-11-26T04:02:44.924Z,81.80
2022-11-26T04:05:11.907Z,81.33
2022-11-26T04:07:38.910Z,81.41
2022-11-26T04:10:06.511Z,81.69
2022-11-26T04:12:33.470Z,81.61
2022-11-26T04:15:00.319Z,81.48
2022-11-26T04:17:27.233Z,81.55
2022-11-26T04:19:54.665Z,81.27
2022-11-26T04:22:21.567Z,81.84
2022-11-26T04:24:48.477Z,81.91
2022-11-26T04:27:15.470Z,81.80
2022-11-26T04:29:42.566Z,81.93
2022-11-26T04:32:09.548Z,81.81
2022-11-26T04:34:36.723Z,81.85
2022-11-26T04:37:03.921Z,81.57
2022-11-26T04:39:30.882Z,81.53
2022-11-26T04:41:57.806Z,81.66
2022-11-26T04:44:24.817Z,81.63
2022-11-26T04:46:51.761Z,81.78
2022-11-26T04:49:18.749Z,82.06
2022-11-26T04:51:46.311Z,81.56
2022-11-26T04:54:13.488Z,82.29
2022-11-26T04:56:40.537Z,82.69
2022-11-26T04:59:08.964Z,81.92
2022-11-26T05:01:36.023Z,82.19
2022-11-26T05:04:03.060Z,82.20
2022-11-26T05:06:30.001Z,82.47
2022-11-26T05:08:57.008Z,82.33
2022-11-26T05:11:23.945Z,82.39
2022-11-26T05:13:50.866Z,82.46
2022-11-26T05:16:17.851Z,82.20
2022-11-26T05:18:44.815Z,82.00
2022-11-26T05:21:11.674Z,82.06
2022-11-26T05:23:38.688Z,82.67
2022-11-26T05:26:05.808Z,81.76
2022-11-26T05:28:32.716Z,82.48
2022-11-26T05:31:03.848Z,82.15
2022-11-26T05:33:31.054Z,82.28
2022-11-26T05:35:58.157Z,81.52
2022-11-26T05:38:25.130Z,81.79
2022-11-26T05:40:52.169Z,81.85
2022-11-26T05:43:19.086Z,82.26
2022-11-26T05:45:46.130Z,82.60
2022-11-26T05:48:13.145Z,82.79
2022-11-26T05:50:40.099Z,82.68
2022-11-26T05:53:07.047Z,82.32
2022-11-26T05:55:34.183Z,82.54
2022-11-26T05:58:01.164Z,82.30
2022-11-26T06:00:28.376Z,82.56
2022-11-26T06:02:55.371Z,81.98
2022-11-26T06:05:22.535Z,81.72
2022-11-26T06:07:50.033Z,82.31
2022-11-26T06:10:17.243Z,82.25
2022-11-26T06:12:47.120Z,82.12
2022-11-26T06:15:14.130Z,82.18
2022-11-26T06:17:41.091Z,82.32
2022-11-26T06:20:08.642Z,82.32
2022-11-26T06:22:39.843Z,82.76
2022-11-26T06:25:09.491Z,82.83
2022-11-26T06:27:37.123Z,83.08
2022-11-26T06:30:05.875Z,82.95
2022-11-26T06:32:32.903Z,83.21
2022-11-26T06:34:59.884Z,82.94
2022-11-26T06:37:26.831Z,82.87
2022-11-26T06:39:53.815Z,83.06
2022-11-26T06:42:20.804Z,83.05
2022-11-26T06:44:47.745Z,82.74
2022-11-26T06:47:15.161Z,82.78
2022-11-26T06:49:42.419Z,82.13
2022-11-26T06:52:09.391Z,82.47
2022-11-26T06:54:36.676Z,82.32
2022-11-26T06:57:03.867Z,82.66
2022-11-26T06:59:31.056Z,82.65
2022-11-26T07:01:58.264Z,82.88
2022-11-26T07:04:25.581Z,82.88
2022-11-26T07:06:52.495Z,82.75
2022-11-26T07:09:19.447Z,81.99
2022-11-26T07:11:46.905Z,82.54
2022-11-26T07:14:13.823Z,81.70
2022-11-26T07:16:40.846Z,81.76
2022-11-26T07:19:07.809Z,81.98
2022-11-26T07:21:34.764Z,81.52
2022-11-26T07:24:01.688Z,81.79
2022-11-26T07:26:29.247Z,81.66
2022-11-26T07:28:57.240Z,81.57
2022-11-26T07:31:24.781Z,81.21
2022-11-26T07:33:52.035Z,81.01
2022-11-26T07:36:26.911Z,81.27
2022-11-26T07:38:55.304Z,81.04
2022-11-26T07:41:22.319Z,81.37
2022-11-26T07:43:50.189Z,81.09
2022-11-26T07:46:20.081Z,81.76
2022-11-26T07:48:47.529Z,81.39
2022-11-26T07:51:19.553Z,81.42
2022-11-26T07:53:46.893Z,81.05
2022-11-26T07:56:14.263Z,81.23
2022-11-26T07:58:41.717Z,81.09
2022-11-26T08:01:10.610Z,81.24
2022-11-26T08:03:42.202Z,81.08
2022-11-26T08:06:10.968Z,80.53
2022-11-26T08:08:38.533Z,80.53
2022-11-26T08:11:14.187Z,80.44
2022-11-26T08:13:42.109Z,80.57
2022-11-26T08:16:10.030Z,80.67
2022-11-26T08:18:37.208Z,80.69
2022-11-26T08:21:04.441Z,80.45
2022-11-26T08:23:32.137Z,80.84
2022-11-26T08:26:21.506Z,80.30
2022-11-26T08:28:47.413Z,80.69
2022-11-26T08:31:16.184Z,80.49
2022-11-26T08:33:43.380Z,79.99
2022-11-26T08:36:11.358Z,80.04
2022-11-26T08:38:39.057Z,80.23
2022-11-26T08:41:08.325Z,79.81
2022-11-26T08:44:04.514Z,79.96
2022-11-26T08:46:23.472Z,79.82
2022-11-26T08:48:50.684Z,79.83
2022-11-26T08:51:17.700Z,79.98
2022-11-26T08:53:46.322Z,80.12
2022-11-26T08:56:14.250Z,80.11
2022-11-26T08:58:43.233Z,80.73
2022-11-26T09:01:11.613Z,80.10
2022-11-26T09:03:39.080Z,79.60
2022-11-26T09:06:07.499Z,80.09
2022-11-26T09:08:56.445Z,80.31
2022-11-26T09:11:24.452Z,80.38
2022-11-26T09:13:51.673Z,80.08
2022-11-26T09:16:18.637Z,79.48
2022-11-26T09:18:45.747Z,79.80
2022-11-26T09:21:12.692Z,79.77
2022-11-26T09:23:39.640Z,80.01
2022-11-26T09:26:06.839Z,79.85
2022-11-26T09:28:34.153Z,79.43
2022-11-26T09:31:02.369Z,79.75
2022-11-26T09:33:30.232Z,79.41
2022-11-26T09:36:08.650Z,79.44
2022-11-26T09:38:36.256Z,79.81
2022-11-26T09:41:27.725Z,79.79
2022-11-26T09:44:31.914Z,79.66
2022-11-26T09:47:16.729Z,79.72
2022-11-26T09:50:08.123Z,79.29
2022-11-26T09:53:03.328Z,79.29
2022-11-26T09:55:36.191Z,79.22
2022-11-26T09:58:26.520Z,79.70
2022-11-26T10:00:54.947Z,79.82
2022-11-26T10:03:30.309Z,79.79
2022-11-26T10:06:10.845Z,79.95
2022-11-26T10:08:40.826Z,80.18
2022-11-26T10:11:28.816Z,80.34
2022-11-26T10:13:56.109Z,80.15
2022-11-26T10:16:30.134Z,80.05
2022-11-26T10:19:13.940Z,79.88
2022-11-26T10:21:59.857Z,79.55
2022-11-26T10:24:42.289Z,79.39
2022-11-26T10:27:18.611Z,79.40
2022-11-26T10:29:51.091Z,79.23
2022-11-26T10:32:27.948Z,78.90
2022-11-26T10:34:57.094Z,78.77
2022-11-26T10:37:29.256Z,79.00
2022-11-26T10:40:19.761Z,79.06
2022-11-26T10:43:08.785Z,78.62
2022-11-26T10:45:45.908Z,78.30
2022-11-26T10:48:31.738Z,78.10
2022-11-26T10:51:00.667Z,77.68
2022-11-26T10:53:30.121Z,77.97
2022-11-26T10:56:01.955Z,77.70
2022-11-26T10:58:38.168Z,77.91
2022-11-26T11:01:06.094Z,77.35
2022-11-26T11:06:36.437Z,78.16
2022-11-26T11:09:24.294Z,78.54
2022-11-26T11:12:11.108Z,78.20
2022-11-26T11:14:43.109Z,78.22
2022-11-26T11:17:37.113Z,78.42
2022-11-26T11:20:23.496Z,79.11
2022-11-26T11:22:57.646Z,78.52
2022-11-26T11:25:33.450Z,78.31
2022-11-26T11:28:22.197Z,78.36
2022-11-26T11:31:14.922Z,77.70
2022-11-26T11:33:42.889Z,78.23
2022-11-26T11:36:16.152Z,78.63
2022-11-26T11:38:52.854Z,78.14
2022-11-26T11:41:38.982Z,77.91
2022-11-26T11:44:17.512Z,78.80
2022-11-26T11:46:59.311Z,78.50
2022-11-26T11:49:32.337Z,78.52
2022-11-26T11:52:30.366Z,78.72
2022-11-26T11:55:06.344Z,78.55
2022-11-26T11:57:58.125Z,78.68
2022-11-26T12:00:37.666Z,79.00
2022-11-26T12:03:31.799Z,78.15
2022-11-26T12:06:27.965Z,77.96
2022-11-26T12:09:17.627Z,77.96
2022-11-26T12:12:19.976Z,78.24
2022-11-26T12:14:53.432Z,77.71
2022-11-26T12:17:48.059Z,77.93
2022-11-26T12:20:19.140Z,78.30
2022-11-26T12:22:54.255Z,78.22
2022-11-26T12:25:36.610Z,77.96
2022-11-26T12:28:20.101Z,78.02
2022-11-26T12:31:03.207Z,77.58
2022-11-26T12:33:50.247Z,78.29
2022-11-26T12:36:32.198Z,78.80
2022-11-26T12:39:19.165Z,78.09
2022-11-26T12:41:57.103Z,78.19
2022-11-26T12:44:37.505Z,78.33
2022-11-26T12:47:33.795Z,78.53
2022-11-26T12:50:18.551Z,78.17
2022-11-26T12:53:10.976Z,78.35
2022-11-26T12:55:50.377Z,78.24
2022-11-26T12:58:26.690Z,77.81
2022-11-26T13:00:55.161Z,77.40
2022-11-26T13:03:33.960Z,77.81
2022-11-26T13:06:08.363Z,77.89
2022-11-26T13:09:18.648Z,77.97
2022-11-26T13:11:48.585Z,78.12
2022-11-26T13:14:35.740Z,78.49
2022-11-26T13:17:15.853Z,78.43
2022-11-26T13:20:09.715Z,78.27
2022-11-26T13:23:00.857Z,78.05
2022-11-26T13:25:45.365Z,78.20
2022-11-26T13:28:23.169Z,78.25
2022-11-26T13:31:29.783Z,77.72
2022-11-26T13:34:06.182Z,77.46
2022-11-26T13:36:47.158Z,77.57
2022-11-26T13:39:51.182Z,77.72
2022-11-26T13:42:49.939Z,77.68
2022-11-26T13:45:32.149Z,78.07
2022-11-26T13:48:10.092Z,77.76
2022-11-26T13:51:05.444Z,77.99
2022-11-26T13:53:56.950Z,78.16
2022-11-26T13:56:26.582Z,78.56
2022-11-26T13:58:58.299Z,78.75
2022-11-26T14:01:34.047Z,78.70
2022-11-26T14:04:01.340Z,78.63
2022-11-26T14:06:28.446Z,78.66
2022-11-26T14:08:56.231Z,79.07
2022-11-26T14:11:42.417Z,78.50
2022-11-26T14:14:24.597Z,78.84
2022-11-26T14:17:00.795Z,78.66
2022-11-26T14:19:40.042Z,78.69
2022-11-26T14:22:08.891Z,78.47
2022-11-26T14:25:12.378Z,78.61
2022-11-26T14:27:55.481Z,78.84
2022-11-26T14:30:24.740Z,78.97
2022-11-26T14:33:04.013Z,79.14
2022-11-26T14:35:36.574Z,79.09
2022-11-26T14:38:05.768Z,78.68
2022-11-26T14:40:38.380Z,79.34
2022-11-26T14:43:22.644Z,79.55
2022-11-26T14:46:02.818Z,79.65
2022-11-26T14:48:31.175Z,80.51
2022-11-26T14:51:00.021Z,80.18
2022-11-26T14:53:30.267Z,79.86
2022-11-26T14:55:57.502Z,79.28
2022-11-26T14:58:31.454Z,80.01
2022-11-26T15:01:07.469Z,79.95
2022-11-26T15:03:35.260Z,80.11
2022-11-26T15:06:02.300Z,79.66
2022-11-26T15:08:29.291Z,79.59
2022-11-26T15:11:05.657Z,79.75
2022-11-26T15:13:38.963Z,79.57
2022-11-26T15:16:31.144Z,79.94
2022-11-26T15:18:58.907Z,80.41
2022-11-26T15:21:27.124Z,79.55
2022-11-26T15:23:57.220Z,79.23
2022-11-26T15:26:26.425Z,79.61
2022-11-26T15:28:56.137Z,80.63
2022-11-26T15:31:23.154Z,80.59
2022-11-26T15:33:51.807Z,80.16
2022-11-26T15:36:20.004Z,79.80
2022-11-26T15:39:03.360Z,80.27
2022-11-26T15:41:30.546Z,80.20
2022-11-26T15:44:01.788Z,79.77
2022-11-26T15:46:32.055Z,80.43
2022-11-26T15:49:07.571Z,80.12
2022-11-26T15:51:38.603Z,79.84
2022-11-26T15:54:18.466Z,80.33
2022-11-26T15:56:49.775Z,79.98
2022-11-26T15:59:17.525Z,79.61
2022-11-26T16:01:46.196Z,79.96
2022-11-26T16:04:37.467Z,79.94
2022-11-26T16:07:16.066Z,79.66
2022-11-26T16:09:44.396Z,79.83
2022-11-26T16:12:32.186Z,80.18
2022-11-26T16:15:17.510Z,79.82
2022-11-26T16:17:44.828Z,79.92
2022-11-26T16:20:23.810Z,80.08
2022-11-26T16:23:01.654Z,79.68
2022-11-26T16:25:31.168Z,79.58
2022-11-26T16:28:18.399Z,79.65
2022-11-26T16:30:45.492Z,79.35
2022-11-26T16:33:12.498Z,78.89
2022-11-26T16:35:45.609Z,79.15
2022-11-26T16:38:21.666Z,79.21
2022-11-26T16:40:49.372Z,79.54
2022-11-26T16:43:16.458Z,78.97
2022-11-26T16:45:43.948Z,79.26
2022-11-26T16:48:37.345Z,79.26
2022-11-26T16:51:04.303Z,79.30
2022-11-26T16:53:31.213Z,79.45
2022-11-26T16:55:58.241Z,78.86
2022-11-26T16:58:36.849Z,78.83
2022-11-26T17:01:04.315Z,79.13
2022-11-26T17:03:33.559Z,79.25
2022-11-26T17:06:13.791Z,79.23
2022-11-26T17:08:45.015Z,78.92
2022-11-26T17:11:15.065Z,78.48
2022-11-26T17:13:42.158Z,77.95
2022-11-26T17:16:15.977Z,78.06
2022-11-26T17:18:43.615Z,78.04
2022-11-26T17:21:10.838Z,78.12
2022-11-26T17:23:37.833Z,78.15
2022-11-26T17:26:21.289Z,78.77
2022-11-26T17:28:48.961Z,78.77
2022-11-26T17:31:15.968Z,78.16
2022-11-26T17:33:43.022Z,78.12
2022-11-26T17:36:19.240Z,78.06
2022-11-26T17:38:46.911Z,78.29
2022-11-26T17:41:14.869Z,78.06
2022-11-26T17:43:42.223Z,78.04
2022-11-26T17:46:17.940Z,77.48
2022-11-26T17:48:45.143Z,78.03
2022-11-26T17:51:13.681Z,77.63
2022-11-26T17:53:41.648Z,78.46
2022-11-26T17:56:19.701Z,78.12
2022-11-26T17:58:46.913Z,78.03
2022-11-26T18:01:15.017Z,78.14
2022-11-26T18:03:43.326Z,77.86
2022-11-26T18:06:18.174Z,78.01
2022-11-26T18:08:45.902Z,77.58
2022-11-26T18:11:14.430Z,77.78
2022-11-26T18:13:41.781Z,77.97
2022-11-26T18:16:08.754Z,77.46
2022-11-26T18:18:35.716Z,77.14
2022-11-26T18:21:02.659Z,77.63
2022-11-26T18:23:29.616Z,77.74
2022-11-26T18:25:56.725Z,77.26
2022-11-26T18:28:23.749Z,77.00
2022-11-26T18:30:50.735Z,77.00
2022-11-26T18:33:17.697Z,76.93
2022-11-26T18:35:44.867Z,77.09
2022-11-26T18:38:11.848Z,76.74
2022-11-26T18:40:38.831Z,76.47
2022-11-26T18:43:06.309Z,77.11
2022-11-26T18:45:33.249Z,76.70
2022-11-26T18:48:00.729Z,76.79
2022-11-26T18:50:27.834Z,76.43
2022-11-26T18:52:58.675Z,76.43
2022-11-26T18:55:26.125Z,76.69
2022-11-26T18:57:53.247Z,76.60
2022-11-26T19:00:20.539Z,75.80
2022-11-26T19:02:47.840Z,76.47
2022-11-26T19:05:15.392Z,76.08
2022-11-26T19:07:42.453Z,76.01
2022-11-26T19:10:10.146Z,76.26
2022-11-26T19:12:37.109Z,76.10
2022-11-26T19:15:04.482Z,76.29
2022-11-26T19:17:31.538Z,76.86
2022-11-26T19:19:58.514Z,75.86
2022-11-26T19:22:25.479Z,75.96
2022-11-26T19:24:52.414Z,75.86
2022-11-26T19:27:19.562Z,75.07
2022-11-26T19:29:46.513Z,76.02
2022-11-26T19:32:13.456Z,76.14
2022-11-26T19:34:40.425Z,76.12
2022-11-26T19:37:08.088Z,75.82
2022-11-26T19:39:35.032Z,76.45
2022-11-26T19:42:02.123Z,76.63
2022-11-26T19:44:29.095Z,76.88
2022-11-26T19:46:56.063Z,76.66
2022-11-26T19:49:23.491Z,76.85
2022-11-26T19:51:50.437Z,76.96
2022-11-26T19:54:17.697Z,76.96
2022-11-26T19:56:46.237Z,77.30
2022-11-26T19:59:13.180Z,77.68
2022-11-26T20:01:40.287Z,77.43
2022-11-26T20:04:09.016Z,77.73
2022-11-26T20:06:36.643Z,78.74
2022-11-26T20:09:05.044Z,78.24
2022-11-26T20:11:32.455Z,77.80
2022-11-26T20:13:59.846Z,77.71
2022-11-26T20:16:31.914Z,78.27
2022-11-26T20:18:59.814Z,77.85
2022-11-26T20:21:29.883Z,78.22
2022-11-26T20:23:59.029Z,78.32
2022-11-26T20:26:29.594Z,77.67
2022-11-26T20:28:59.869Z,78.73
2022-11-26T20:31:27.111Z,78.53
2022-11-26T20:33:54.700Z,78.51
2022-11-26T20:36:23.385Z,78.33
2022-11-26T20:38:54.734Z,78.73
2022-11-26T20:41:22.464Z,78.58
2022-11-26T20:43:54.896Z,78.40
2022-11-26T20:46:25.953Z,79.26
2022-11-26T20:48:53.422Z,79.19
2022-11-26T20:51:22.432Z,78.62
2022-11-26T20:53:50.982Z,79.33
2022-11-26T20:56:22.427Z,79.32
2022-11-26T20:58:50.386Z,78.81
2022-11-26T21:01:20.423Z,79.68
2022-11-26T21:03:47.898Z,79.85
2022-11-26T21:06:16.304Z,79.86
2022-11-26T21:08:43.276Z,79.40
2022-11-26T21:11:11.178Z,79.98
2022-11-26T21:13:39.239Z,80.03
2022-11-26T21:16:08.385Z,80.30
2022-11-26T21:18:35.471Z,79.45
2022-11-26T21:21:11.462Z,79.43
2022-11-26T21:23:39.774Z,79.79
2022-11-26T21:26:08.600Z,79.18
2022-11-26T21:28:35.836Z,79.24
2022-11-26T21:31:12.009Z,79.96
2022-11-26T21:33:39.033Z,80.24
2022-11-26T21:36:11.413Z,80.34
2022-11-26T21:38:38.818Z,79.16
2022-11-26T21:41:07.132Z,79.77
2022-11-26T21:43:34.276Z,79.84
2022-11-26T21:46:05.240Z,79.92
2022-11-26T21:48:32.699Z,79.50
2022-11-26T21:50:59.748Z,79.31
2022-11-26T21:53:26.705Z,79.63
2022-11-26T21:55:53.785Z,79.43
2022-11-26T21:58:20.707Z,79.63
2022-11-26T22:00:47.688Z,79.65
2022-11-26T22:03:14.508Z,79.77
2022-11-26T22:05:42.140Z,79.44
2022-11-26T22:08:09.965Z,79.46
2022-11-26T22:10:37.668Z,79.22
2022-11-26T22:13:04.692Z,79.12
2022-11-26T22:15:31.636Z,79.07
2022-11-26T22:17:58.684Z,78.99
2022-11-26T22:20:25.660Z,78.73
2022-11-26T22:22:52.633Z,79.27
2022-11-26T22:25:19.592Z,78.86
2022-11-26T22:27:46.544Z,78.64
2022-11-26T22:30:14.656Z,79.07
2022-11-26T22:32:41.586Z,79.26
2022-11-26T22:35:09.262Z,78.72
2022-11-26T22:37:36.205Z,79.07
2022-11-26T22:40:04.124Z,78.96
2022-11-26T22:42:31.109Z,79.22
2022-11-26T22:44:58.010Z,79.43
2022-11-26T22:47:24.936Z,79.24
2022-11-26T22:49:52.000Z,79.78
2022-11-26T22:52:19.035Z,79.78
2022-11-26T22:54:46.053Z,79.45
2022-11-26T22:57:13.070Z,79.30
2022-11-26T22:59:40.233Z,78.89
2022-11-26T23:02:07.439Z,79.26
2022-11-26T23:04:34.375Z,79.24
2022-11-26T23:07:01.283Z,79.31
2022-11-26T23:09:28.267Z,79.51
2022-11-26T23:11:55.203Z,78.71
2022-11-26T23:14:22.181Z,79.05
2022-11-26T23:16:49.190Z,79.44
2022-11-26T23:19:16.804Z,79.75
2022-11-26T23:21:47.137Z,79.72
2022-11-26T23:24:15.649Z,79.40
2022-11-26T23:26:43.237Z,79.74
2022-11-26T23:29:10.931Z,79.28
2022-11-26T23:31:41.029Z,79.06
2022-11-26T23:34:08.897Z,79.22
2022-11-26T23:36:36.569Z,79.13
2022-11-26T23:39:05.063Z,79.17
2022-11-26T23:41:32.102Z,78.87
2022-11-26T23:43:59.081Z,78.85
2022-11-26T23:46:29.257Z,78.93
2022-11-26T23:48:56.320Z,79.02
2022-11-26T23:51:25.130Z,79.22
2022-11-26T23:53:52.872Z,79.74
2022-11-26T23:56:26.832Z,79.31
2022-11-26T23:58:55.770Z,79.21
